![]() |
EMODnet Physics ERDDAP
Easier access to scientific data |
log in|
Brought to you by EMODnet Physics |
| Dataset Title: | NDBC - Collection of dew point temperature (DEWT) TimeSeries - IN SITU MultiPointTimeSeriesObservation
|
| Institution: | NDBC (Dataset ID: TS_DEWT_NDBC) |
| Information: | Summary
| License
| FGDC
| ISO 19115
| Metadata
| Background
| Subset
| Data Access Form
| Make a graph
|
| Name | Last modified | Size | Description | |
|---|---|---|---|---|
| Parent Directory | - | - | ||
| WNEM4_TS_DEWT_012009.nc | 28-Oct-2024 02:09 | 428879 | ||
| WNEM4_TS_DEWT_012010.nc | 28-Oct-2024 02:09 | 428885 | ||
| WNEM4_TS_DEWT_012011.nc | 28-Oct-2024 02:10 | 1028761 | ||
| WNEM4_TS_DEWT_012012.nc | 28-Oct-2024 02:10 | 1105387 | ||
| WNEM4_TS_DEWT_012013.nc | 28-Oct-2024 02:10 | 1029524 | ||
| WNEM4_TS_DEWT_012015.nc | 28-Oct-2024 02:10 | 917251 | ||
| WNEM4_TS_DEWT_012016.nc | 28-Oct-2024 02:10 | 421227 | ||
| WNEM4_TS_DEWT_012017.nc | 28-Oct-2024 02:10 | 429908 | ||
| WNEM4_TS_DEWT_012018.nc | 28-Oct-2024 02:10 | 429907 | ||
| WNEM4_TS_DEWT_012019.nc | 28-Oct-2024 02:10 | 446602 | ||
| WNEM4_TS_DEWT_012020.nc | 28-Oct-2024 02:10 | 449898 | ||
| WNEM4_TS_DEWT_012021.nc | 28-Oct-2024 02:10 | 449857 | ||
| WNEM4_TS_DEWT_012024.nc | 28-Oct-2024 02:10 | 429890 | ||
| WNEM4_TS_DEWT_012025.nc | 07-Feb-2025 14:59 | 429917 | ||
| WNEM4_TS_DEWT_012026.nc | 02-Feb-2026 14:44 | 1262564 | ||
| WNEM4_TS_DEWT_022009.nc | 28-Oct-2024 02:10 | 1264806 | ||
| WNEM4_TS_DEWT_022010.nc | 28-Oct-2024 02:10 | 1008886 | ||
| WNEM4_TS_DEWT_022011.nc | 28-Oct-2024 02:10 | 1263504 | ||
| WNEM4_TS_DEWT_022012.nc | 28-Oct-2024 02:11 | 1143358 | ||
| WNEM4_TS_DEWT_022013.nc | 28-Oct-2024 02:11 | 427953 | ||
| WNEM4_TS_DEWT_022014.nc | 28-Oct-2024 02:11 | 429567 | ||
| WNEM4_TS_DEWT_022015.nc | 28-Oct-2024 02:11 | 429568 | ||
| WNEM4_TS_DEWT_022016.nc | 28-Oct-2024 02:11 | 448909 | ||
| WNEM4_TS_DEWT_022017.nc | 28-Oct-2024 02:11 | 449028 | ||
| WNEM4_TS_DEWT_022018.nc | 28-Oct-2024 02:11 | 449059 | ||
| WNEM4_TS_DEWT_022019.nc | 28-Oct-2024 02:11 | 429567 | ||
| WNEM4_TS_DEWT_022020.nc | 28-Oct-2024 02:11 | 429571 | ||
| WNEM4_TS_DEWT_022021.nc | 28-Oct-2024 02:11 | 429569 | ||
| WNEM4_TS_DEWT_022022.nc | 28-Oct-2024 02:11 | 429567 | ||
| WNEM4_TS_DEWT_022023.nc | 28-Oct-2024 02:11 | 1115018 | ||
| WNEM4_TS_DEWT_022024.nc | 16-Sep-2024 16:51 | 1113389 | ||
| WNEM4_TS_DEWT_022025.nc | 01-Mar-2025 10:00 | 1112885 | ||
| WNEM4_TS_DEWT_022026.nc | 01-Mar-2026 16:07 | 1061660 | ||
| WNEM4_TS_DEWT_032009.nc | 28-Oct-2024 02:11 | 994678 | ||
| WNEM4_TS_DEWT_032010.nc | 28-Oct-2024 02:11 | 449951 | ||
| WNEM4_TS_DEWT_032011.nc | 28-Oct-2024 02:11 | 429914 | ||
| WNEM4_TS_DEWT_032012.nc | 28-Oct-2024 02:11 | 429774 | ||
| WNEM4_TS_DEWT_032013.nc | 28-Oct-2024 02:11 | 449634 | ||
| WNEM4_TS_DEWT_032014.nc | 28-Oct-2024 02:12 | 449697 | ||
| WNEM4_TS_DEWT_032015.nc | 28-Oct-2024 02:12 | 450382 | ||
| WNEM4_TS_DEWT_032016.nc | 28-Oct-2024 02:12 | 429911 | ||
| WNEM4_TS_DEWT_032017.nc | 28-Oct-2024 02:12 | 429908 | ||
| WNEM4_TS_DEWT_032018.nc | 28-Oct-2024 02:12 | 429557 | ||
| WNEM4_TS_DEWT_032019.nc | 28-Oct-2024 02:12 | 1263870 | ||
| WNEM4_TS_DEWT_032020.nc | 28-Oct-2024 02:12 | 1267455 | ||
| WNEM4_TS_DEWT_032021.nc | 28-Oct-2024 02:12 | 1264384 | ||
| WNEM4_TS_DEWT_032022.nc | 28-Oct-2024 02:12 | 1143305 | ||
| WNEM4_TS_DEWT_032023.nc | 28-Oct-2024 02:12 | 1143287 | ||
| WNEM4_TS_DEWT_032026.nc | 21-Mar-2026 18:18 | 429565 | ||
| WNEM4_TS_DEWT_042009.nc | 28-Oct-2024 02:12 | 429569 | ||
| WNEM4_TS_DEWT_042010.nc | 28-Oct-2024 02:12 | 448613 | ||
| WNEM4_TS_DEWT_042011.nc | 28-Oct-2024 02:12 | 449153 | ||
| WNEM4_TS_DEWT_042012.nc | 28-Oct-2024 02:12 | 442671 | ||
| WNEM4_TS_DEWT_042013.nc | 28-Oct-2024 02:12 | 429569 | ||
| WNEM4_TS_DEWT_042014.nc | 28-Oct-2024 02:12 | 429572 | ||
| WNEM4_TS_DEWT_042015.nc | 28-Oct-2024 02:12 | 429567 | ||
| WNEM4_TS_DEWT_042016.nc | 28-Oct-2024 02:13 | 1032261 | ||
| WNEM4_TS_DEWT_042017.nc | 28-Oct-2024 02:13 | 1114505 | ||
| WNEM4_TS_DEWT_042019.nc | 28-Oct-2024 02:13 | 994790 | ||
| WNEM4_TS_DEWT_042020.nc | 28-Oct-2024 02:13 | 994840 | ||
| WNEM4_TS_DEWT_042021.nc | 28-Oct-2024 02:13 | 450137 | ||
| WNEM4_TS_DEWT_042022.nc | 28-Oct-2024 02:13 | 429910 | ||
| WNEM4_TS_DEWT_042023.nc | 28-Oct-2024 02:13 | 429909 | ||
| WNEM4_TS_DEWT_042025.nc | 30-Apr-2025 07:10 | 450202 | ||
| WNEM4_TS_DEWT_052009.nc | 28-Oct-2024 02:13 | 450385 | ||
| WNEM4_TS_DEWT_052010.nc | 28-Oct-2024 02:13 | 435194 | ||
| WNEM4_TS_DEWT_052011.nc | 28-Oct-2024 02:13 | 429909 | ||
| WNEM4_TS_DEWT_052012.nc | 28-Oct-2024 02:13 | 429912 | ||
| WNEM4_TS_DEWT_052013.nc | 28-Oct-2024 02:13 | 429890 | ||
| WNEM4_TS_DEWT_052014.nc | 28-Oct-2024 02:13 | 1269093 | ||
| WNEM4_TS_DEWT_052015.nc | 28-Oct-2024 02:13 | 1106497 | ||
| WNEM4_TS_DEWT_052016.nc | 28-Oct-2024 02:13 | 1266215 | ||
| WNEM4_TS_DEWT_052017.nc | 28-Oct-2024 02:13 | 1143205 | ||
| WNEM4_TS_DEWT_052018.nc | 28-Oct-2024 02:14 | 1143315 | ||
| WNEM4_TS_DEWT_052019.nc | 28-Oct-2024 02:14 | 450450 | ||
| WNEM4_TS_DEWT_052020.nc | 28-Oct-2024 02:14 | 429908 | ||
| WNEM4_TS_DEWT_052021.nc | 28-Oct-2024 02:14 | 429912 | ||
| WNEM4_TS_DEWT_052022.nc | 28-Oct-2024 02:14 | 449937 | ||
| WNEM4_TS_DEWT_052023.nc | 28-Oct-2024 02:14 | 449955 | ||
| WNEM4_TS_DEWT_052025.nc | 01-Jun-2025 08:55 | 420265 | ||
| WNEM4_TS_DEWT_062008.nc | 28-Oct-2024 02:14 | 429910 | ||
| WNEM4_TS_DEWT_062009.nc | 28-Oct-2024 02:14 | 429911 | ||
| WNEM4_TS_DEWT_062010.nc | 28-Oct-2024 02:14 | 429912 | ||
| WNEM4_TS_DEWT_062012.nc | 28-Oct-2024 02:14 | 1263809 | ||
| WNEM4_TS_DEWT_062013.nc | 28-Oct-2024 02:14 | 1269176 | ||
| WNEM4_TS_DEWT_062014.nc | 28-Oct-2024 02:14 | 1143260 | ||
| WNEM4_TS_DEWT_062015.nc | 28-Oct-2024 02:14 | 1143132 | ||
| WNEM4_TS_DEWT_062016.nc | 28-Oct-2024 02:15 | 449276 | ||
| WNEM4_TS_DEWT_062017.nc | 28-Oct-2024 02:15 | 429566 | ||
| WNEM4_TS_DEWT_062018.nc | 28-Oct-2024 02:15 | 440302 | ||
| WNEM4_TS_DEWT_062019.nc | 28-Oct-2024 02:15 | 449053 | ||
| WNEM4_TS_DEWT_062020.nc | 28-Oct-2024 02:15 | 449240 | ||
| WNEM4_TS_DEWT_062021.nc | 28-Oct-2024 02:15 | 429571 | ||
| WNEM4_TS_DEWT_062022.nc | 28-Oct-2024 02:15 | 429566 | ||
| WNEM4_TS_DEWT_062023.nc | 28-Oct-2024 02:15 | 429567 | ||
| WNEM4_TS_DEWT_062025.nc | 01-Jul-2025 06:47 | 636584 | ||
| WNEM4_TS_DEWT_072008.nc | 28-Oct-2024 02:15 | 1112181 | ||
| WNEM4_TS_DEWT_072009.nc | 28-Oct-2024 02:15 | 1113487 | ||
| WNEM4_TS_DEWT_072010.nc | 28-Oct-2024 02:15 | 1114683 | ||
| WNEM4_TS_DEWT_072011.nc | 28-Oct-2024 02:15 | 994845 | ||
| WNEM4_TS_DEWT_072012.nc | 28-Oct-2024 02:15 | 994851 | ||
| WNEM4_TS_DEWT_072013.nc | 28-Oct-2024 02:15 | 429910 | ||
| WNEM4_TS_DEWT_072014.nc | 28-Oct-2024 02:15 | 429910 | ||
| WNEM4_TS_DEWT_072015.nc | 28-Oct-2024 02:16 | 450166 | ||
| WNEM4_TS_DEWT_072016.nc | 28-Oct-2024 02:16 | 449872 | ||
| WNEM4_TS_DEWT_072017.nc | 28-Oct-2024 02:16 | 450410 | ||
| WNEM4_TS_DEWT_072018.nc | 28-Oct-2024 02:16 | 429905 | ||
| WNEM4_TS_DEWT_072020.nc | 28-Oct-2024 02:16 | 429908 | ||
| WNEM4_TS_DEWT_072021.nc | 28-Oct-2024 02:16 | 1262304 | ||
| WNEM4_TS_DEWT_072022.nc | 28-Oct-2024 02:16 | 1263894 | ||
| WNEM4_TS_DEWT_072023.nc | 28-Oct-2024 02:16 | 1263923 | ||
| WNEM4_TS_DEWT_072025.nc | 01-Aug-2025 07:15 | 1265964 | ||
| WNEM4_TS_DEWT_082008.nc | 28-Oct-2024 02:16 | 1143322 | ||
| WNEM4_TS_DEWT_082009.nc | 28-Oct-2024 02:16 | 1143319 | ||
| WNEM4_TS_DEWT_082010.nc | 28-Oct-2024 02:16 | 429567 | ||
| WNEM4_TS_DEWT_082011.nc | 28-Oct-2024 02:16 | 429568 | ||
| WNEM4_TS_DEWT_082012.nc | 28-Oct-2024 02:16 | 448547 | ||
| WNEM4_TS_DEWT_082013.nc | 28-Oct-2024 02:16 | 449828 | ||
| WNEM4_TS_DEWT_082014.nc | 28-Oct-2024 02:16 | 448791 | ||
| WNEM4_TS_DEWT_082015.nc | 28-Oct-2024 02:16 | 428208 | ||
| WNEM4_TS_DEWT_082016.nc | 28-Oct-2024 02:16 | 429571 | ||
| WNEM4_TS_DEWT_082017.nc | 28-Oct-2024 02:16 | 429548 | ||
| WNEM4_TS_DEWT_082018.nc | 28-Oct-2024 02:17 | 429551 | ||
| WNEM4_TS_DEWT_082019.nc | 28-Oct-2024 02:17 | 1113243 | ||
| WNEM4_TS_DEWT_082020.nc | 28-Oct-2024 02:17 | 1112312 | ||
| WNEM4_TS_DEWT_082021.nc | 28-Oct-2024 02:17 | 1107155 | ||
| WNEM4_TS_DEWT_082023.nc | 28-Oct-2024 02:17 | 994923 | ||
| WNEM4_TS_DEWT_082025.nc | 01-Sep-2025 08:23 | 994840 | ||
| WNEM4_TS_DEWT_092008.nc | 28-Oct-2024 02:17 | 429911 | ||
| WNEM4_TS_DEWT_092009.nc | 28-Oct-2024 02:17 | 429896 | ||
| WNEM4_TS_DEWT_092010.nc | 28-Oct-2024 02:17 | 449729 | ||
| WNEM4_TS_DEWT_092011.nc | 28-Oct-2024 02:17 | 449911 | ||
| WNEM4_TS_DEWT_092012.nc | 28-Oct-2024 02:17 | 450066 | ||
| WNEM4_TS_DEWT_092013.nc | 28-Oct-2024 02:17 | 429908 | ||
| WNEM4_TS_DEWT_092014.nc | 28-Oct-2024 02:17 | 429908 | ||
| WNEM4_TS_DEWT_092015.nc | 28-Oct-2024 02:17 | 429912 | ||
| WNEM4_TS_DEWT_092016.nc | 28-Oct-2024 02:17 | 429905 | ||
| WNEM4_TS_DEWT_092017.nc | 28-Oct-2024 02:17 | 1262436 | ||
| WNEM4_TS_DEWT_092018.nc | 28-Oct-2024 02:18 | 1265484 | ||
| WNEM4_TS_DEWT_092019.nc | 28-Oct-2024 02:18 | 1263715 | ||
| WNEM4_TS_DEWT_092020.nc | 28-Oct-2024 02:18 | 1266864 | ||
| WNEM4_TS_DEWT_092021.nc | 28-Oct-2024 02:18 | 1143328 | ||
| WNEM4_TS_DEWT_092022.nc | 28-Oct-2024 02:18 | 1143251 | ||
| WNEM4_TS_DEWT_092023.nc | 28-Oct-2024 02:18 | 429747 | ||
| WNEM4_TS_DEWT_092025.nc | 01-Oct-2025 09:03 | 429903 | ||
| WNEM4_TS_DEWT_102008.nc | 28-Oct-2024 02:18 | 429490 | ||
| WNEM4_TS_DEWT_102009.nc | 28-Oct-2024 02:18 | 430435 | ||
| WNEM4_TS_DEWT_102010.nc | 28-Oct-2024 02:18 | 587270 | ||
| WNEM4_TS_DEWT_102011.nc | 28-Oct-2024 02:18 | 439793 | ||
| WNEM4_TS_DEWT_102012.nc | 28-Oct-2024 02:18 | 440438 | ||
| WNEM4_TS_DEWT_102013.nc | 28-Oct-2024 02:18 | 439797 | ||
| WNEM4_TS_DEWT_102014.nc | 28-Oct-2024 02:18 | 438231 | ||
| WNEM4_TS_DEWT_102015.nc | 28-Oct-2024 02:18 | 587011 | ||
| WNEM4_TS_DEWT_102016.nc | 28-Oct-2024 02:18 | 587124 | ||
| WNEM4_TS_DEWT_102017.nc | 28-Oct-2024 02:19 | 587227 | ||
| WNEM4_TS_DEWT_102018.nc | 28-Oct-2024 02:19 | 587081 | ||
| WNEM4_TS_DEWT_102019.nc | 28-Oct-2024 02:19 | 439489 | ||
| WNEM4_TS_DEWT_102020.nc | 28-Oct-2024 02:19 | 586916 | ||
| WNEM4_TS_DEWT_102021.nc | 28-Oct-2024 02:19 | 439412 | ||
| WNEM4_TS_DEWT_102022.nc | 28-Oct-2024 02:19 | 434372 | ||
| WNEM4_TS_DEWT_102023.nc | 28-Oct-2024 02:19 | 426821 | ||
| WNEM4_TS_DEWT_102025.nc | 01-Nov-2025 08:35 | 587243 | ||
| WNEM4_TS_DEWT_112008.nc | 28-Oct-2024 02:19 | 418875 | ||
| WNEM4_TS_DEWT_112009.nc | 28-Oct-2024 02:19 | 428885 | ||
| WNEM4_TS_DEWT_112010.nc | 28-Oct-2024 02:19 | 428633 | ||
| WNEM4_TS_DEWT_112011.nc | 28-Oct-2024 02:19 | 428649 | ||
| WNEM4_TS_DEWT_112012.nc | 28-Oct-2024 02:19 | 439005 | ||
| WNEM4_TS_DEWT_112013.nc | 28-Oct-2024 02:19 | 438810 | ||
| WNEM4_TS_DEWT_112014.nc | 28-Oct-2024 02:19 | 423016 | ||
| WNEM4_TS_DEWT_112015.nc | 28-Oct-2024 02:19 | 438326 | ||
| WNEM4_TS_DEWT_112016.nc | 28-Oct-2024 02:19 | 438791 | ||
| WNEM4_TS_DEWT_112017.nc | 28-Oct-2024 02:20 | 432228 | ||
| WNEM4_TS_DEWT_112018.nc | 28-Oct-2024 02:20 | 438633 | ||
| WNEM4_TS_DEWT_112019.nc | 28-Oct-2024 02:20 | 438677 | ||
| WNEM4_TS_DEWT_112020.nc | 28-Oct-2024 02:20 | 439325 | ||
| WNEM4_TS_DEWT_112021.nc | 28-Oct-2024 02:20 | 438690 | ||
| WNEM4_TS_DEWT_112022.nc | 28-Oct-2024 02:20 | 432011 | ||
| WNEM4_TS_DEWT_112023.nc | 28-Oct-2024 02:20 | 438761 | ||
| WNEM4_TS_DEWT_112024.nc | 17-Jan-2025 20:08 | 439521 | ||
| WNEM4_TS_DEWT_112025.nc | 01-Dec-2025 11:50 | 438875 | ||
| WNEM4_TS_DEWT_122008.nc | 28-Oct-2024 02:20 | 430209 | ||
| WNEM4_TS_DEWT_122009.nc | 28-Oct-2024 02:20 | 429854 | ||
| WNEM4_TS_DEWT_122010.nc | 28-Oct-2024 02:20 | 429610 | ||
| WNEM4_TS_DEWT_122011.nc | 28-Oct-2024 02:20 | 429818 | ||
| WNEM4_TS_DEWT_122012.nc | 28-Oct-2024 02:20 | 587147 | ||
| WNEM4_TS_DEWT_122013.nc | 28-Oct-2024 02:20 | 587210 | ||
| WNEM4_TS_DEWT_122014.nc | 28-Oct-2024 02:20 | 586904 | ||
| WNEM4_TS_DEWT_122015.nc | 28-Oct-2024 02:20 | 439445 | ||
| WNEM4_TS_DEWT_122016.nc | 28-Oct-2024 02:20 | 440165 | ||
| WNEM4_TS_DEWT_122017.nc | 28-Oct-2024 02:20 | 440294 | ||
| WNEM4_TS_DEWT_122018.nc | 28-Oct-2024 02:21 | 440033 | ||
| WNEM4_TS_DEWT_122019.nc | 28-Oct-2024 02:21 | 440269 | ||
| WNEM4_TS_DEWT_122020.nc | 28-Oct-2024 02:21 | 440066 | ||
| WNEM4_TS_DEWT_122021.nc | 28-Oct-2024 02:21 | 586914 | ||
| WNEM4_TS_DEWT_122022.nc | 28-Oct-2024 02:21 | 586884 | ||
| WNEM4_TS_DEWT_122023.nc | 28-Oct-2024 02:21 | 587286 | ||
| WNEM4_TS_DEWT_122024.nc | 22-Jan-2025 20:06 | 429134 | ||
| WNEM4_TS_DEWT_122025.nc | 01-Jan-2026 10:18 | 587275 | ||